Estación de Nogales

Ultimos registro cada 15 minutos 68
Estación Fecha / Hora Temperatura Humedad Lluvia Velocidad Dirección Radiación Presion
68 Nogales 03-09-2026 16:45 21,1 56,7 0 2 253 321,9 988,9
67 Nogales 03-09-2026 16:30 21,2 56,3 0 2 239 375,6 988,7
66 Nogales 03-09-2026 16:15 21,5 55,9 0 2 251 423,1 988,7
65 Nogales 03-09-2026 16:00 21,5 57,4 0 2,3 237 466,9 988,6
64 Nogales 03-09-2026 15:45 22 58,5 0 2,7 226 513,1 988,6
63 Nogales 03-09-2026 15:30 21,7 59,3 0 2,7 225 558,1 988,5
62 Nogales 03-09-2026 15:15 22,5 55,6 0 2 225 595,6 988,5
61 Nogales 03-09-2026 15:00 23,2 54 0 1,7 230 635,6 988,5
60 Nogales 03-09-2026 14:45 22,4 54,4 0 2 219 675,6 988,5
59 Nogales 03-09-2026 14:30 22,9 51,6 0 1,7 204 705,6 988,5
58 Nogales 03-09-2026 14:15 24,1 42 0 0,7 136 733,1 988,7
57 Nogales 03-09-2026 14:00 23,4 42,6 0 0,3 124 758,1 988,9
56 Nogales 03-09-2026 13:45 23,2 44,8 0 1 198 779,4 989,1
55 Nogales 03-09-2026 13:30 22,9 47,7 0 0,7 136 791,9 989,4
54 Nogales 03-09-2026 13:15 22,8 47,3 0 1 154 801,9 989,5
53 Nogales 03-09-2026 13:00 21,7 49,2 0 1,3 187 809,4 989,8
52 Nogales 03-09-2026 12:45 22,2 49,2 0 1 152 811,9 989,9
51 Nogales 03-09-2026 12:30 21,5 51,9 0 1,7 191 806,9 990
50 Nogales 03-09-2026 12:15 21,3 55 0 1,7 173 800,6 990,2
49 Nogales 03-09-2026 12:00 20,3 58 0 1,7 188 789,4 990,3
48 Nogales 03-09-2026 11:45 20,2 57,5 0 1,7 184 774,4 990,4
47 Nogales 03-09-2026 11:30 19,9 59 0 1 199 756,9 990,5
46 Nogales 03-09-2026 11:15 20,1 60,9 0 0,3 187 731,9 990,7
45 Nogales 03-09-2026 11:00 19,8 61 0 0 234 703,1 990,8
44 Nogales 03-09-2026 10:45 18,9 63 0 0 199 671,9 991
43 Nogales 03-09-2026 10:30 18,5 64,2 0 0 241 636,9 991,1
42 Nogales 03-09-2026 10:15 16,6 68,5 0 0 59 599,4 991,1
41 Nogales 03-09-2026 10:00 16,4 72,9 0 0 153 559,4 991,1
40 Nogales 03-09-2026 09:45 15,8 74,4 0 0 153 515,6 991,2
39 Nogales 03-09-2026 09:30 16 78,4 0 0 153 470,6 991,3
38 Nogales 03-09-2026 09:15 13,8 81 0 0,3 153 418,1 991,4
37 Nogales 03-09-2026 09:00 12,8 86,1 0 0,3 347 364,4 991,4
36 Nogales 03-09-2026 08:45 13 94,8 0 0 336 315,6 991,5
35 Nogales 03-09-2026 08:30 11 96,8 0 0 336 268,1 991,5
34 Nogales 03-09-2026 08:15 9,1 97,4 0 0,3 336 219,4 991,4
33 Nogales 03-09-2026 08:00 6,9 97,5 0 0 330 25,6 991,5
32 Nogales 03-09-2026 07:45 5,6 97,9 0 0 330 16,9 991,2
31 Nogales 03-09-2026 07:30 5,5 97,8 0 0 330 10,6 991,1
30 Nogales 03-09-2026 07:15 5,3 97,8 0,2 0 330 5,6 990,9
29 Nogales 03-09-2026 07:00 5,5 97,7 0 0 330 1,9 990,8
28 Nogales 03-09-2026 06:45 5,4 97,7 0 0 330 0,6 990,5
27 Nogales 03-09-2026 06:30 5,3 97,6 0 0 330 0,6 990,4
26 Nogales 03-09-2026 06:15 5,2 97,5 0 0 330 0,6 990,3
25 Nogales 03-09-2026 06:00 5,3 97,4 0 0 330 0,6 990,1
24 Nogales 03-09-2026 05:45 5,1 97,2 0 0 329 0,6 990,1
23 Nogales 03-09-2026 05:30 5,5 97,3 0 0 329 0,6 990,1
22 Nogales 03-09-2026 05:15 5,7 97,2 0 0 329 0,6 990,2
21 Nogales 03-09-2026 05:00 5,7 97,1 0 0 327 0,6 990,3
20 Nogales 03-09-2026 04:45 5,8 97 0 0 327 0,6 990,3
19 Nogales 03-09-2026 04:30 5,7 96,9 0 0 327 0,6 990,3
18 Nogales 03-09-2026 04:15 5,8 96,8 0 0 327 0,6 990,3
17 Nogales 03-09-2026 04:00 6,1 96,6 0 0 327 0,6 990,2
16 Nogales 03-09-2026 03:45 6,1 96,7 0 0 327 0,6 990,3
15 Nogales 03-09-2026 03:30 6,3 96,5 0 0 327 0,6 990,4
14 Nogales 03-09-2026 03:15 6,6 96,5 0 0 326 0,6 990,3
13 Nogales 03-09-2026 03:00 6,7 96,4 0 0 317 0,6 990,2
12 Nogales 03-09-2026 02:45 7,1 96,2 0 0 317 0,6 990,3
11 Nogales 03-09-2026 02:30 6,8 96 0 0 317 0,6 990,6
10 Nogales 03-09-2026 02:15 7,1 95,7 0 0 317 0,6 990,8
9 Nogales 03-09-2026 02:00 7,3 95,7 0 0 317 0,6 990,6
8 Nogales 03-09-2026 01:45 7,4 95,4 0 0 317 0,6 990,7
7 Nogales 03-09-2026 01:30 7,4 95,5 0 0 317 0,6 990,8
6 Nogales 03-09-2026 01:15 7,1 95 0 0 309 0,6 990,9
5 Nogales 03-09-2026 01:00 7,4 94,9 0 0 307 0,6 990,9
4 Nogales 03-09-2026 00:45 7,6 94,7 0 0 307 0,6 990,8
3 Nogales 03-09-2026 00:30 7,7 94,4 0 0 307 0,6 990,8
2 Nogales 03-09-2026 00:15 7,8 94 0 0 307 0,6 990,8
1 Nogales 03-09-2026 00:00 8 93,8 0 0 307 0,6 990,7